Terminal Aerodrome Forecast
Issued by NWS

Home | Current Version | Previous Version | Graphics & Text | Print | Product List | Glossary On
Versions: 1 2 3 4 5 6 7 8 9 10 11 12 13 14 15 16
000
FTUS43 KMPX 102340
TAFRNH
TAF
KRNH 102340Z 1100/1124 VRB03KT P6SM BKN025
     FM110100 VRB03KT P6SM SCT025 BKN100
     FM110700 18004KT 3/4SM -SN OVC010
     FM111000 17005KT P6SM VCSH OVC020
     FM111500 30008KT 4SM -SHSN OVC008
     FM111800 33010G19KT P6SM OVC012
     FM112100 34014G22KT P6SM OVC020=

USA.gov is the U.S. government's official web portal to all federal, state and local government web resources and services.